FIN4HX EFHK-EFRO
Flight info
| Callsign | FIN4HX |
|---|---|
| Flight time | 1h 38m |
| Altitude | 38000 |
| Route | TEVRU Y75 USUPO DCT RENVI |
| Aircraft | A319/M-SDE1E2E3FGIJ1M1RWXYZ/LB1 |
Departure
| Time | 2026-05-04 20:26 |
|---|---|
| Airport | Helsinki Vantaa Airport (EFHK) |
Arrival
| Time | 2026-05-04 22:04 |
|---|---|
| Airport | Rovaniemi Airport (EFRO) |
| Time | Latitude | Longitude | Altitude | Speed | Heading |
|---|---|---|---|---|---|
| 2026-05-04 19:51 | 60.31862 | 24.96994 | 167 ft | 0 kts | 242° |
| 2026-05-04 20:16 | 60.31862 | 24.96995 | 167 ft | 2 kts | 242° |
| 2026-05-04 20:16 | 60.31874 | 24.97040 | 167 ft | 4 kts | 245° |
| 2026-05-04 20:16 | 60.31884 | 24.97090 | 166 ft | 4 kts | 260° |
| 2026-05-04 20:16 | 60.31882 | 24.97133 | 166 ft | 4 kts | 324° |
| 2026-05-04 20:17 | 60.31861 | 24.97157 | 166 ft | 4 kts | 333° |
| 2026-05-04 20:17 | 60.31854 | 24.97165 | 166 ft | 0 kts | 333° |
| 2026-05-04 20:19 | 60.31856 | 24.97162 | 166 ft | 2 kts | 333° |
| 2026-05-04 20:19 | 60.31877 | 24.97140 | 166 ft | 5 kts | 333° |
| 2026-05-04 20:19 | 60.31921 | 24.97096 | 166 ft | 9 kts | 333° |
| 2026-05-04 20:20 | 60.31986 | 24.97029 | 166 ft | 12 kts | 333° |
| 2026-05-04 20:20 | 60.32070 | 24.96937 | 166 ft | 15 kts | 330° |
| 2026-05-04 20:20 | 60.32160 | 24.96833 | 166 ft | 15 kts | 330° |
| 2026-05-04 20:20 | 60.32255 | 24.96723 | 166 ft | 16 kts | 330° |
| 2026-05-04 20:21 | 60.32344 | 24.96619 | 171 ft | 14 kts | 330° |
| 2026-05-04 20:21 | 60.32423 | 24.96528 | 175 ft | 14 kts | 330° |
| 2026-05-04 20:21 | 60.32620 | 24.96298 | 173 ft | 18 kts | 330° |
| 2026-05-04 20:22 | 60.32729 | 24.96170 | 172 ft | 18 kts | 330° |
| 2026-05-04 20:22 | 60.32838 | 24.96043 | 174 ft | 18 kts | 330° |
| 2026-05-04 20:22 | 60.32941 | 24.95924 | 177 ft | 16 kts | 330° |
| 2026-05-04 20:22 | 60.33030 | 24.95818 | 181 ft | 13 kts | 329° |
| 2026-05-04 20:23 | 60.33108 | 24.95703 | 180 ft | 15 kts | 317° |
| 2026-05-04 20:23 | 60.33182 | 24.95565 | 182 ft | 12 kts | 317° |
| 2026-05-04 20:23 | 60.33209 | 24.95432 | 182 ft | 11 kts | 264° |
| 2026-05-04 20:23 | 60.33162 | 24.95288 | 179 ft | 14 kts | 227° |
| 2026-05-04 20:24 | 60.33109 | 24.95111 | 178 ft | 14 kts | 256° |
| 2026-05-04 20:24 | 60.33111 | 24.94923 | 179 ft | 13 kts | 272° |
| 2026-05-04 20:24 | 60.33115 | 24.94736 | 182 ft | 13 kts | 272° |
| 2026-05-04 20:24 | 60.33118 | 24.94562 | 188 ft | 11 kts | 272° |
| 2026-05-04 20:25 | 60.33117 | 24.94418 | 190 ft | 10 kts | 257° |
| 2026-05-04 20:25 | 60.33072 | 24.94297 | 194 ft | 12 kts | 227° |
| 2026-05-04 20:25 | 60.33004 | 24.94149 | 196 ft | 22 kts | 227° |
| 2026-05-04 20:25 | 60.32714 | 24.93511 | 181 ft | 99 kts | 227° |
| 2026-05-04 20:26 | 60.32098 | 24.92165 | 226 ft | 154 kts | 227° |
| 2026-05-04 20:26 | 60.31375 | 24.90579 | 928 ft | 153 kts | 229° |
| 2026-05-04 20:26 | 60.30673 | 24.88983 | 1771 ft | 150 kts | 237° |
| 2026-05-04 20:26 | 60.30238 | 24.87106 | 2519 ft | 150 kts | 258° |
| 2026-05-04 20:27 | 60.30215 | 24.84884 | 2954 ft | 171 kts | 280° |
| 2026-05-04 20:27 | 60.30683 | 24.82464 | 3349 ft | 199 kts | 291° |
| 2026-05-04 20:27 | 60.31278 | 24.79766 | 3870 ft | 223 kts | 291° |
| 2026-05-04 20:27 | 60.31951 | 24.76799 | 4591 ft | 239 kts | 294° |
| 2026-05-04 20:28 | 60.32741 | 24.73796 | 5553 ft | 245 kts | 296° |
| 2026-05-04 20:28 | 60.33737 | 24.70950 | 6510 ft | 256 kts | 313° |
| 2026-05-04 20:28 | 60.35315 | 24.69139 | 7443 ft | 272 kts | 340° |
| 2026-05-04 20:28 | 60.37250 | 24.69040 | 8401 ft | 287 kts | 1° |
| 2026-05-04 20:29 | 60.39239 | 24.69609 | 9383 ft | 291 kts | 2° |
| 2026-05-04 20:29 | 60.41267 | 24.70225 | 10077 ft | 304 kts | 2° |
| 2026-05-04 20:29 | 60.43440 | 24.70876 | 10422 ft | 327 kts | 2° |
| 2026-05-04 20:29 | 60.45739 | 24.71560 | 11045 ft | 339 kts | 2° |
| 2026-05-04 20:30 | 60.48096 | 24.72265 | 11776 ft | 346 kts | 1° |
| 2026-05-04 20:30 | 60.50497 | 24.72984 | 12546 ft | 352 kts | 1° |
| 2026-05-04 20:30 | 60.52946 | 24.73719 | 13340 ft | 359 kts | 1° |
| 2026-05-04 20:30 | 60.55409 | 24.74455 | 13983 ft | 366 kts | 1° |
| 2026-05-04 20:31 | 60.57943 | 24.75211 | 14678 ft | 370 kts | 1° |
| 2026-05-04 20:31 | 60.60504 | 24.75973 | 15378 ft | 374 kts | 1° |
| 2026-05-04 20:31 | 60.63093 | 24.76741 | 16092 ft | 378 kts | 1° |
| 2026-05-04 20:31 | 60.65709 | 24.77516 | 16801 ft | 382 kts | 1° |
| 2026-05-04 20:32 | 60.68353 | 24.78306 | 17502 ft | 386 kts | 1° |
| 2026-05-04 20:32 | 60.71027 | 24.79111 | 18160 ft | 390 kts | 1° |
| 2026-05-04 20:32 | 60.73726 | 24.79930 | 18771 ft | 394 kts | 1° |
| 2026-05-04 20:32 | 60.76445 | 24.80754 | 19393 ft | 397 kts | 0° |
| 2026-05-04 20:33 | 60.79187 | 24.81579 | 20024 ft | 400 kts | 0° |
| 2026-05-04 20:33 | 60.81952 | 24.82410 | 20646 ft | 403 kts | 0° |
| 2026-05-04 20:33 | 60.84742 | 24.83190 | 21265 ft | 407 kts | 359° |
| 2026-05-04 20:33 | 60.87561 | 24.83882 | 21851 ft | 410 kts | 358° |
| 2026-05-04 20:34 | 60.90404 | 24.84531 | 22457 ft | 413 kts | 358° |
| 2026-05-04 20:34 | 60.93273 | 24.85167 | 23063 ft | 416 kts | 358° |
| 2026-05-04 20:34 | 60.96163 | 24.85811 | 23564 ft | 420 kts | 358° |
| 2026-05-04 20:34 | 60.99081 | 24.86476 | 24062 ft | 423 kts | 358° |
| 2026-05-04 20:35 | 61.02019 | 24.87162 | 24537 ft | 426 kts | 358° |
| 2026-05-04 20:35 | 61.04972 | 24.87865 | 25006 ft | 429 kts | 358° |
| 2026-05-04 20:35 | 61.07947 | 24.88579 | 25492 ft | 431 kts | 358° |
| 2026-05-04 20:35 | 61.10931 | 24.89299 | 25968 ft | 433 kts | 358° |
| 2026-05-04 20:36 | 61.13934 | 24.90020 | 26502 ft | 436 kts | 358° |
| 2026-05-04 20:36 | 61.16962 | 24.90743 | 26864 ft | 440 kts | 358° |
| 2026-05-04 20:36 | 61.20021 | 24.91472 | 27270 ft | 444 kts | 358° |
| 2026-05-04 20:36 | 61.23098 | 24.92210 | 27718 ft | 447 kts | 358° |
| 2026-05-04 20:37 | 61.26195 | 24.92962 | 28155 ft | 449 kts | 358° |
| 2026-05-04 20:37 | 61.29307 | 24.93720 | 28597 ft | 452 kts | 358° |
| 2026-05-04 20:37 | 61.32437 | 24.94477 | 29017 ft | 454 kts | 358° |
| 2026-05-04 20:37 | 61.35582 | 24.95235 | 29441 ft | 457 kts | 358° |
| 2026-05-04 20:38 | 61.38746 | 24.96003 | 29828 ft | 459 kts | 358° |
| 2026-05-04 20:38 | 61.41928 | 24.96780 | 30158 ft | 461 kts | 358° |
| 2026-05-04 20:38 | 61.45120 | 24.97560 | 30530 ft | 464 kts | 358° |
| 2026-05-04 20:38 | 61.48344 | 24.98352 | 30759 ft | 468 kts | 358° |
| 2026-05-04 20:39 | 61.51587 | 24.99149 | 31039 ft | 471 kts | 358° |
| 2026-05-04 20:39 | 61.54853 | 24.99959 | 31348 ft | 473 kts | 358° |
| 2026-05-04 20:39 | 61.58121 | 25.00776 | 31763 ft | 472 kts | 358° |
| 2026-05-04 20:39 | 61.61378 | 25.01588 | 32225 ft | 470 kts | 358° |
| 2026-05-04 20:40 | 61.64621 | 25.02213 | 32681 ft | 466 kts | 355° |
| 2026-05-04 20:40 | 61.67801 | 25.02597 | 33116 ft | 463 kts | 354° |
| 2026-05-04 20:40 | 61.71009 | 25.02831 | 33561 ft | 460 kts | 353° |
| 2026-05-04 20:40 | 61.74207 | 25.03008 | 33929 ft | 459 kts | 353° |
| 2026-05-04 20:41 | 61.77401 | 25.03197 | 34263 ft | 460 kts | 354° |
| 2026-05-04 20:41 | 61.80607 | 25.03428 | 34487 ft | 463 kts | 354° |
| 2026-05-04 20:41 | 61.83833 | 25.03716 | 34774 ft | 464 kts | 355° |
| 2026-05-04 20:41 | 61.87061 | 25.04045 | 35022 ft | 466 kts | 356° |
| 2026-05-04 20:42 | 61.90302 | 25.04399 | 35290 ft | 466 kts | 356° |
| 2026-05-04 20:42 | 61.93539 | 25.04754 | 35564 ft | 466 kts | 356° |
| 2026-05-04 20:42 | 61.96779 | 25.05100 | 35824 ft | 466 kts | 356° |
| 2026-05-04 20:42 | 62.00023 | 25.05436 | 36083 ft | 467 kts | 356° |
| 2026-05-04 20:43 | 62.03264 | 25.05767 | 36331 ft | 467 kts | 356° |
| 2026-05-04 20:43 | 62.06508 | 25.06096 | 36579 ft | 467 kts | 356° |
| 2026-05-04 20:43 | 62.09755 | 25.06423 | 36820 ft | 468 kts | 356° |
| 2026-05-04 20:43 | 62.13015 | 25.06753 | 36994 ft | 469 kts | 357° |
| 2026-05-04 20:44 | 62.16274 | 25.07083 | 37195 ft | 470 kts | 357° |
| 2026-05-04 20:44 | 62.19541 | 25.07418 | 37403 ft | 470 kts | 357° |
| 2026-05-04 20:44 | 62.22808 | 25.07758 | 37563 ft | 471 kts | 357° |
| 2026-05-04 20:44 | 62.26076 | 25.08098 | 37603 ft | 470 kts | 357° |
| 2026-05-04 20:45 | 62.32595 | 25.08774 | 37599 ft | 469 kts | 357° |
| 2026-05-04 20:45 | 62.39114 | 25.09455 | 37592 ft | 469 kts | 357° |
| 2026-05-04 20:46 | 62.45632 | 25.10123 | 37594 ft | 469 kts | 357° |
| 2026-05-04 20:46 | 62.52150 | 25.10802 | 37589 ft | 469 kts | 357° |
| 2026-05-04 20:47 | 62.58664 | 25.11479 | 37602 ft | 469 kts | 357° |
| 2026-05-04 20:47 | 62.65186 | 25.12164 | 37624 ft | 469 kts | 357° |
| 2026-05-04 20:48 | 62.71699 | 25.12857 | 37611 ft | 468 kts | 357° |
| 2026-05-04 20:48 | 62.78202 | 25.13560 | 37617 ft | 468 kts | 358° |
| 2026-05-04 20:49 | 62.84708 | 25.14250 | 37608 ft | 468 kts | 357° |
| 2026-05-04 20:49 | 62.91211 | 25.14940 | 37593 ft | 468 kts | 358° |
| 2026-05-04 20:50 | 62.97719 | 25.15645 | 37589 ft | 468 kts | 358° |
| 2026-05-04 20:50 | 63.04221 | 25.16349 | 37585 ft | 468 kts | 358° |
| 2026-05-04 20:51 | 63.10741 | 25.17055 | 37584 ft | 470 kts | 358° |
| 2026-05-04 20:51 | 63.17277 | 25.17769 | 37569 ft | 471 kts | 358° |
| 2026-05-04 20:52 | 63.23821 | 25.18497 | 37569 ft | 471 kts | 358° |
| 2026-05-04 20:52 | 63.30373 | 25.19228 | 37569 ft | 472 kts | 358° |
| 2026-05-04 20:53 | 63.36929 | 25.19954 | 37580 ft | 472 kts | 358° |
| 2026-05-04 20:53 | 63.43490 | 25.20690 | 37568 ft | 472 kts | 358° |
| 2026-05-04 20:54 | 63.50046 | 25.21425 | 37563 ft | 472 kts | 358° |
| 2026-05-04 20:54 | 63.55500 | 25.22027 | 37557 ft | 472 kts | 358° |
| 2026-05-04 20:55 | 63.62067 | 25.22743 | 37560 ft | 473 kts | 358° |
| 2026-05-04 20:55 | 63.69702 | 25.23619 | 37561 ft | 473 kts | 358° |
| 2026-05-04 20:56 | 63.76279 | 25.24388 | 37569 ft | 473 kts | 358° |
| 2026-05-04 20:56 | 63.81794 | 25.25018 | 37554 ft | 474 kts | 358° |
| 2026-05-04 20:57 | 63.88347 | 25.25771 | 37551 ft | 475 kts | 358° |
| 2026-05-04 20:57 | 63.94948 | 25.26530 | 37546 ft | 475 kts | 358° |
| 2026-05-04 20:58 | 64.01550 | 25.27286 | 37547 ft | 475 kts | 358° |
| 2026-05-04 20:58 | 64.08157 | 25.28062 | 37564 ft | 476 kts | 359° |
| 2026-05-04 20:59 | 64.14771 | 25.28843 | 37555 ft | 476 kts | 358° |
| 2026-05-04 20:59 | 64.21388 | 25.29611 | 37578 ft | 476 kts | 358° |
| 2026-05-04 21:00 | 64.28007 | 25.30381 | 37559 ft | 476 kts | 358° |
| 2026-05-04 21:00 | 64.34627 | 25.31176 | 37549 ft | 476 kts | 358° |
| 2026-05-04 21:01 | 64.41250 | 25.31976 | 37561 ft | 477 kts | 358° |
| 2026-05-04 21:01 | 64.47877 | 25.32777 | 37546 ft | 477 kts | 358° |
| 2026-05-04 21:02 | 64.54502 | 25.33566 | 37542 ft | 477 kts | 358° |
| 2026-05-04 21:02 | 64.61132 | 25.34358 | 37533 ft | 477 kts | 358° |
| 2026-05-04 21:03 | 64.67762 | 25.35170 | 37529 ft | 477 kts | 358° |
| 2026-05-04 21:03 | 64.74392 | 25.35984 | 37524 ft | 477 kts | 359° |
| 2026-05-04 21:04 | 64.81026 | 25.36782 | 37353 ft | 477 kts | 359° |
| 2026-05-04 21:04 | 64.84337 | 25.37194 | 37092 ft | 476 kts | 359° |
| 2026-05-04 21:04 | 64.87642 | 25.37611 | 36838 ft | 476 kts | 359° |
| 2026-05-04 21:05 | 64.90903 | 25.38019 | 36592 ft | 475 kts | 359° |
| 2026-05-04 21:05 | 64.94204 | 25.38431 | 36346 ft | 475 kts | 359° |
| 2026-05-04 21:05 | 64.97506 | 25.38845 | 36100 ft | 475 kts | 358° |
| 2026-05-04 21:05 | 65.00813 | 25.39259 | 35554 ft | 478 kts | 358° |
| 2026-05-04 21:06 | 65.04161 | 25.39673 | 34618 ft | 485 kts | 358° |
| 2026-05-04 21:06 | 65.07549 | 25.40090 | 33877 ft | 488 kts | 359° |
| 2026-05-04 21:06 | 65.10923 | 25.40512 | 33302 ft | 484 kts | 359° |
| 2026-05-04 21:06 | 65.14276 | 25.40936 | 32668 ft | 481 kts | 359° |
| 2026-05-04 21:07 | 65.17602 | 25.41365 | 32077 ft | 476 kts | 359° |
| 2026-05-04 21:07 | 65.20899 | 25.41795 | 31482 ft | 473 kts | 359° |
| 2026-05-04 21:07 | 65.24172 | 25.42220 | 30910 ft | 469 kts | 359° |
| 2026-05-04 21:07 | 65.27420 | 25.42641 | 30323 ft | 466 kts | 359° |
| 2026-05-04 21:08 | 65.30653 | 25.43054 | 29759 ft | 464 kts | 358° |
| 2026-05-04 21:08 | 65.33868 | 25.43464 | 29122 ft | 461 kts | 358° |
| 2026-05-04 21:08 | 65.37055 | 25.43875 | 28578 ft | 456 kts | 359° |
| 2026-05-04 21:08 | 65.40203 | 25.44286 | 28044 ft | 450 kts | 359° |
| 2026-05-04 21:09 | 65.43316 | 25.44691 | 27511 ft | 445 kts | 359° |
| 2026-05-04 21:09 | 65.46393 | 25.45083 | 27008 ft | 440 kts | 359° |
| 2026-05-04 21:09 | 65.49436 | 25.45466 | 26504 ft | 436 kts | 359° |
| 2026-05-04 21:09 | 65.52444 | 25.45851 | 26023 ft | 431 kts | 359° |
| 2026-05-04 21:10 | 65.55430 | 25.46241 | 25533 ft | 428 kts | 359° |
| 2026-05-04 21:10 | 65.58387 | 25.46628 | 25046 ft | 424 kts | 359° |
| 2026-05-04 21:10 | 65.61326 | 25.47011 | 24561 ft | 422 kts | 359° |
| 2026-05-04 21:10 | 65.64250 | 25.47389 | 24057 ft | 420 kts | 359° |
| 2026-05-04 21:11 | 65.67165 | 25.47764 | 23561 ft | 419 kts | 359° |
| 2026-05-04 21:11 | 65.70073 | 25.48139 | 23029 ft | 418 kts | 359° |
| 2026-05-04 21:11 | 65.72975 | 25.48518 | 22460 ft | 416 kts | 359° |
| 2026-05-04 21:11 | 65.75848 | 25.48900 | 22010 ft | 411 kts | 359° |
| 2026-05-04 21:12 | 65.78716 | 25.49286 | 21148 ft | 416 kts | 360° |
| 2026-05-04 21:12 | 65.81585 | 25.49670 | 20389 ft | 419 kts | 360° |
| 2026-05-04 21:12 | 65.84486 | 25.50056 | 19849 ft | 415 kts | 0° |
| 2026-05-04 21:12 | 65.87392 | 25.50448 | 19359 ft | 411 kts | 0° |
| 2026-05-04 21:13 | 65.90190 | 25.50831 | 18909 ft | 406 kts | 0° |
| 2026-05-04 21:13 | 65.92994 | 25.51212 | 18445 ft | 401 kts | 0° |
| 2026-05-04 21:13 | 65.95766 | 25.51584 | 17986 ft | 397 kts | 0° |
| 2026-05-04 21:13 | 65.98505 | 25.51953 | 17488 ft | 392 kts | 0° |
| 2026-05-04 21:14 | 66.01215 | 25.52321 | 16931 ft | 388 kts | 1° |
| 2026-05-04 21:14 | 66.03904 | 25.52681 | 16373 ft | 385 kts | 1° |
| 2026-05-04 21:14 | 66.06561 | 25.53260 | 15816 ft | 383 kts | 8° |
| 2026-05-04 21:14 | 66.09110 | 25.55105 | 15291 ft | 382 kts | 22° |
| 2026-05-04 21:15 | 66.11478 | 25.57981 | 14763 ft | 378 kts | 26° |
| 2026-05-04 21:15 | 66.13814 | 25.60900 | 14242 ft | 374 kts | 26° |
| 2026-05-04 21:15 | 66.16127 | 25.63771 | 13730 ft | 370 kts | 26° |
| 2026-05-04 21:15 | 66.18416 | 25.66610 | 13222 ft | 366 kts | 26° |
| 2026-05-04 21:16 | 66.20686 | 25.69430 | 12624 ft | 363 kts | 26° |
| 2026-05-04 21:16 | 66.22932 | 25.72236 | 12008 ft | 361 kts | 26° |
| 2026-05-04 21:16 | 66.25138 | 25.75006 | 11776 ft | 348 kts | 26° |
| 2026-05-04 21:16 | 66.27248 | 25.77666 | 11645 ft | 334 kts | 26° |
| 2026-05-04 21:17 | 66.29278 | 25.80234 | 11501 ft | 321 kts | 26° |
| 2026-05-04 21:17 | 66.31231 | 25.82702 | 11366 ft | 310 kts | 26° |
| 2026-05-04 21:17 | 66.33120 | 25.85084 | 11234 ft | 299 kts | 26° |
| 2026-05-04 21:17 | 66.34943 | 25.87392 | 11101 ft | 289 kts | 26° |
| 2026-05-04 21:18 | 66.36710 | 25.89637 | 10940 ft | 281 kts | 26° |
| 2026-05-04 21:18 | 66.38442 | 25.91841 | 10656 ft | 279 kts | 26° |
| 2026-05-04 21:18 | 66.40171 | 25.94046 | 10299 ft | 279 kts | 27° |
| 2026-05-04 21:18 | 66.41899 | 25.96258 | 9956 ft | 279 kts | 27° |
| 2026-05-04 21:19 | 66.43626 | 25.98459 | 9628 ft | 278 kts | 26° |
| 2026-05-04 21:19 | 66.45350 | 26.00656 | 9292 ft | 278 kts | 27° |
| 2026-05-04 21:19 | 66.47065 | 26.02855 | 8950 ft | 276 kts | 27° |
| 2026-05-04 21:19 | 66.48770 | 26.05047 | 8635 ft | 274 kts | 27° |
| 2026-05-04 21:20 | 66.50462 | 26.07228 | 8311 ft | 272 kts | 27° |
| 2026-05-04 21:20 | 66.52140 | 26.09391 | 7995 ft | 270 kts | 27° |
| 2026-05-04 21:20 | 66.53805 | 26.11539 | 7680 ft | 268 kts | 27° |
| 2026-05-04 21:20 | 66.55457 | 26.13671 | 7372 ft | 266 kts | 28° |
| 2026-05-04 21:21 | 66.57074 | 26.15760 | 7068 ft | 264 kts | 28° |
| 2026-05-04 21:21 | 66.58721 | 26.17884 | 6758 ft | 262 kts | 28° |
| 2026-05-04 21:21 | 66.60331 | 26.19978 | 6522 ft | 259 kts | 28° |
| 2026-05-04 21:21 | 66.61909 | 26.22035 | 6479 ft | 259 kts | 28° |
| 2026-05-04 21:22 | 66.63514 | 26.24123 | 6485 ft | 260 kts | 28° |
| 2026-05-04 21:22 | 66.65118 | 26.26207 | 6497 ft | 260 kts | 28° |
| 2026-05-04 21:22 | 66.66593 | 26.28782 | 6498 ft | 257 kts | 49° |
| 2026-05-04 21:22 | 66.67484 | 26.32613 | 6495 ft | 254 kts | 76° |
| 2026-05-04 21:23 | 66.67612 | 26.36966 | 6504 ft | 249 kts | 103° |
| 2026-05-04 21:23 | 66.66978 | 26.40937 | 6502 ft | 243 kts | 128° |
| 2026-05-04 21:23 | 66.65762 | 26.43798 | 6498 ft | 239 kts | 152° |
| 2026-05-04 21:23 | 66.64202 | 26.45114 | 6498 ft | 237 kts | 175° |
| 2026-05-04 21:24 | 66.62571 | 26.44677 | 6501 ft | 239 kts | 199° |
| 2026-05-04 21:24 | 66.61047 | 26.42995 | 6501 ft | 240 kts | 205° |
| 2026-05-04 21:24 | 66.59551 | 26.41111 | 6498 ft | 240 kts | 206° |
| 2026-05-04 21:24 | 66.58064 | 26.39179 | 6499 ft | 240 kts | 206° |
| 2026-05-04 21:25 | 66.56579 | 26.37250 | 6499 ft | 241 kts | 206° |
| 2026-05-04 21:25 | 66.55116 | 26.35210 | 6493 ft | 242 kts | 216° |
| 2026-05-04 21:25 | 66.54006 | 26.32055 | 6496 ft | 244 kts | 239° |
| 2026-05-04 21:25 | 66.53517 | 26.27967 | 6499 ft | 249 kts | 264° |
| 2026-05-04 21:26 | 66.53779 | 26.23683 | 6463 ft | 253 kts | 290° |
| 2026-05-04 21:26 | 66.54777 | 26.20048 | 6462 ft | 257 kts | 317° |
| 2026-05-04 21:26 | 66.56312 | 26.17892 | 6458 ft | 259 kts | 345° |
| 2026-05-04 21:26 | 66.58122 | 26.17702 | 6461 ft | 260 kts | 13° |
| 2026-05-04 21:27 | 66.59775 | 26.19326 | 6466 ft | 259 kts | 27° |
| 2026-05-04 21:27 | 66.61389 | 26.21352 | 6465 ft | 259 kts | 28° |
| 2026-05-04 21:27 | 66.62996 | 26.23428 | 6467 ft | 260 kts | 28° |
| 2026-05-04 21:27 | 66.64603 | 26.25510 | 6500 ft | 260 kts | 28° |
| 2026-05-04 21:28 | 66.66172 | 26.27743 | 6489 ft | 258 kts | 40° |
| 2026-05-04 21:28 | 66.67279 | 26.31219 | 6499 ft | 255 kts | 68° |
| 2026-05-04 21:28 | 66.67652 | 26.35507 | 6502 ft | 250 kts | 94° |
| 2026-05-04 21:28 | 66.67261 | 26.39702 | 6501 ft | 245 kts | 120° |
| 2026-05-04 21:29 | 66.66217 | 26.42995 | 6491 ft | 240 kts | 144° |
| 2026-05-04 21:29 | 66.64743 | 26.44851 | 6493 ft | 237 kts | 168° |
| 2026-05-04 21:29 | 66.63104 | 26.45002 | 6496 ft | 238 kts | 191° |
| 2026-05-04 21:29 | 66.61544 | 26.43580 | 6500 ft | 240 kts | 204° |
| 2026-05-04 21:30 | 66.60041 | 26.41736 | 6498 ft | 241 kts | 206° |
| 2026-05-04 21:30 | 66.58554 | 26.39812 | 6499 ft | 241 kts | 206° |
| 2026-05-04 21:30 | 66.57066 | 26.37870 | 6497 ft | 241 kts | 206° |
| 2026-05-04 21:30 | 66.55581 | 26.35920 | 6499 ft | 241 kts | 208° |
| 2026-05-04 21:31 | 66.53601 | 26.29336 | 6497 ft | 247 kts | 256° |
| 2026-05-04 21:31 | 66.53617 | 26.25025 | 6498 ft | 252 kts | 282° |
| 2026-05-04 21:31 | 66.54392 | 26.21085 | 6461 ft | 256 kts | 309° |
| 2026-05-04 21:32 | 66.55802 | 26.18378 | 6461 ft | 259 kts | 336° |
| 2026-05-04 21:32 | 66.57534 | 26.17536 | 6459 ft | 259 kts | 4° |
| 2026-05-04 21:32 | 66.59257 | 26.18722 | 6465 ft | 259 kts | 27° |
| 2026-05-04 21:32 | 66.60877 | 26.20714 | 6464 ft | 259 kts | 28° |
| 2026-05-04 21:33 | 66.62483 | 26.22775 | 6463 ft | 259 kts | 28° |
| 2026-05-04 21:33 | 66.64086 | 26.24850 | 6467 ft | 259 kts | 28° |
| 2026-05-04 21:33 | 66.65685 | 26.26945 | 6495 ft | 259 kts | 31° |
| 2026-05-04 21:33 | 66.66989 | 26.29973 | 6495 ft | 255 kts | 59° |
| 2026-05-04 21:34 | 66.67608 | 26.34090 | 6502 ft | 251 kts | 86° |
| 2026-05-04 21:34 | 66.67448 | 26.38402 | 6500 ft | 246 kts | 112° |
| 2026-05-04 21:34 | 66.66590 | 26.42047 | 6502 ft | 242 kts | 136° |
| 2026-05-04 21:34 | 66.65224 | 26.44402 | 6496 ft | 238 kts | 161° |
| 2026-05-04 21:35 | 66.63605 | 26.45071 | 6494 ft | 238 kts | 184° |
| 2026-05-04 21:35 | 66.62010 | 26.44009 | 6496 ft | 240 kts | 203° |
| 2026-05-04 21:35 | 66.60500 | 26.42209 | 6497 ft | 241 kts | 206° |
| 2026-05-04 21:35 | 66.59004 | 26.40299 | 6496 ft | 241 kts | 206° |
| 2026-05-04 21:36 | 66.57516 | 26.38367 | 6498 ft | 241 kts | 206° |
| 2026-05-04 21:36 | 66.56026 | 26.36440 | 6496 ft | 241 kts | 206° |
| 2026-05-04 21:36 | 66.54646 | 26.34077 | 6493 ft | 243 kts | 225° |
| 2026-05-04 21:36 | 66.53759 | 26.30473 | 6494 ft | 246 kts | 249° |
| 2026-05-04 21:37 | 66.53564 | 26.26204 | 6496 ft | 251 kts | 275° |
| 2026-05-04 21:37 | 66.54133 | 26.22072 | 6462 ft | 255 kts | 301° |
| 2026-05-04 21:37 | 66.55393 | 26.18948 | 6459 ft | 258 kts | 329° |
| 2026-05-04 21:37 | 66.57092 | 26.17574 | 6458 ft | 259 kts | 357° |
| 2026-05-04 21:38 | 66.58857 | 26.18280 | 6461 ft | 258 kts | 24° |
| 2026-05-04 21:38 | 66.60483 | 26.20205 | 6464 ft | 259 kts | 28° |
| 2026-05-04 21:38 | 66.62091 | 26.22249 | 6465 ft | 259 kts | 28° |
| 2026-05-04 21:38 | 66.63691 | 26.24325 | 6466 ft | 259 kts | 28° |
| 2026-05-04 21:39 | 66.65295 | 26.26404 | 6497 ft | 259 kts | 28° |
| 2026-05-04 21:39 | 66.66722 | 26.29079 | 6492 ft | 256 kts | 52° |
| 2026-05-04 21:39 | 66.67529 | 26.33001 | 6494 ft | 252 kts | 79° |
| 2026-05-04 21:39 | 66.67563 | 26.37343 | 6495 ft | 247 kts | 105° |
| 2026-05-04 21:40 | 66.66860 | 26.41212 | 6496 ft | 242 kts | 131° |
| 2026-05-04 21:40 | 66.65597 | 26.43915 | 6497 ft | 239 kts | 154° |
| 2026-05-04 21:40 | 66.64015 | 26.45031 | 6496 ft | 237 kts | 178° |
| 2026-05-04 21:40 | 66.62390 | 26.44371 | 6496 ft | 239 kts | 200° |
| 2026-05-04 21:41 | 66.60868 | 26.42641 | 6494 ft | 241 kts | 205° |
| 2026-05-04 21:41 | 66.59371 | 26.40742 | 6493 ft | 241 kts | 206° |
| 2026-05-04 21:41 | 66.57882 | 26.38804 | 6493 ft | 241 kts | 206° |
| 2026-05-04 21:41 | 66.56412 | 26.36889 | 6492 ft | 241 kts | 206° |
| 2026-05-04 21:42 | 66.54952 | 26.34715 | 6489 ft | 242 kts | 219° |
| 2026-05-04 21:42 | 66.53928 | 26.31367 | 6490 ft | 246 kts | 244° |
| 2026-05-04 21:42 | 66.53565 | 26.27177 | 6493 ft | 250 kts | 269° |
| 2026-05-04 21:42 | 66.53954 | 26.22979 | 6460 ft | 254 kts | 295° |
| 2026-05-04 21:43 | 66.55069 | 26.19548 | 6460 ft | 258 kts | 322° |
| 2026-05-04 21:43 | 66.56701 | 26.17728 | 6458 ft | 259 kts | 350° |
| 2026-05-04 21:43 | 66.58485 | 26.17949 | 6460 ft | 259 kts | 18° |
| 2026-05-04 21:43 | 66.60129 | 26.19771 | 6464 ft | 259 kts | 28° |
| 2026-05-04 21:44 | 66.61738 | 26.21804 | 6466 ft | 259 kts | 28° |
| 2026-05-04 21:44 | 66.63340 | 26.23879 | 6467 ft | 259 kts | 29° |
| 2026-05-04 21:44 | 66.64941 | 26.25960 | 6497 ft | 259 kts | 28° |
| 2026-05-04 21:44 | 66.66451 | 26.28367 | 6490 ft | 256 kts | 46° |
| 2026-05-04 21:45 | 66.67408 | 26.32075 | 6493 ft | 253 kts | 74° |
| 2026-05-04 21:45 | 66.67609 | 26.36403 | 6494 ft | 248 kts | 100° |
| 2026-05-04 21:45 | 66.67057 | 26.40443 | 6496 ft | 243 kts | 125° |
| 2026-05-04 21:45 | 66.65895 | 26.43443 | 6492 ft | 239 kts | 149° |
| 2026-05-04 21:46 | 66.64358 | 26.44915 | 6492 ft | 237 kts | 173° |
| 2026-05-04 21:46 | 66.62716 | 26.44625 | 6494 ft | 239 kts | 197° |
| 2026-05-04 21:46 | 66.61181 | 26.42983 | 6495 ft | 241 kts | 205° |
| 2026-05-04 21:46 | 66.59678 | 26.41104 | 6494 ft | 241 kts | 206° |
| 2026-05-04 21:47 | 66.58689 | 26.39826 | 6493 ft | 241 kts | 206° |
| 2026-05-04 21:47 | 66.57198 | 26.37885 | 6493 ft | 241 kts | 206° |
| 2026-05-04 21:47 | 66.55708 | 26.35950 | 6493 ft | 241 kts | 207° |
| 2026-05-04 21:47 | 66.54100 | 26.32150 | 6492 ft | 245 kts | 238° |
| 2026-05-04 21:48 | 66.53582 | 26.28071 | 6493 ft | 249 kts | 264° |
| 2026-05-04 21:48 | 66.53821 | 26.23765 | 6461 ft | 254 kts | 290° |
| 2026-05-04 21:48 | 66.54806 | 26.20105 | 6460 ft | 257 kts | 317° |
| 2026-05-04 21:48 | 66.55814 | 26.18428 | 6459 ft | 259 kts | 336° |
| 2026-05-04 21:49 | 66.57571 | 26.17576 | 6458 ft | 259 kts | 4° |
| 2026-05-04 21:49 | 66.59296 | 26.18749 | 6463 ft | 258 kts | 27° |
| 2026-05-04 21:49 | 66.60907 | 26.20743 | 6462 ft | 258 kts | 28° |
| 2026-05-04 21:49 | 66.62508 | 26.22809 | 6463 ft | 259 kts | 29° |
| 2026-05-04 21:50 | 66.64095 | 26.24869 | 6461 ft | 251 kts | 28° |
| 2026-05-04 21:50 | 66.65600 | 26.26822 | 6489 ft | 236 kts | 31° |
| 2026-05-04 21:50 | 66.66777 | 26.29465 | 6492 ft | 223 kts | 59° |
| 2026-05-04 21:50 | 66.67325 | 26.32989 | 6495 ft | 219 kts | 86° |
| 2026-05-04 21:51 | 66.67220 | 26.36737 | 6492 ft | 214 kts | 111° |
| 2026-05-04 21:51 | 66.66502 | 26.39934 | 6495 ft | 209 kts | 136° |
| 2026-05-04 21:51 | 66.65336 | 26.42038 | 6493 ft | 206 kts | 159° |
| 2026-05-04 21:51 | 66.63941 | 26.42708 | 6494 ft | 206 kts | 183° |
| 2026-05-04 21:52 | 66.62536 | 26.41840 | 6501 ft | 212 kts | 202° |
| 2026-05-04 21:52 | 66.61189 | 26.40257 | 6496 ft | 214 kts | 205° |
| 2026-05-04 21:52 | 66.59858 | 26.38554 | 6494 ft | 215 kts | 206° |
| 2026-05-04 21:52 | 66.58531 | 26.36826 | 6493 ft | 215 kts | 206° |
| 2026-05-04 21:53 | 66.57202 | 26.35101 | 6488 ft | 215 kts | 206° |
| 2026-05-04 21:53 | 66.55924 | 26.33162 | 6486 ft | 216 kts | 220° |
| 2026-05-04 21:53 | 66.55014 | 26.30155 | 6487 ft | 220 kts | 244° |
| 2026-05-04 21:53 | 66.54707 | 26.26395 | 6490 ft | 224 kts | 270° |
| 2026-05-04 21:54 | 66.55111 | 26.22619 | 6463 ft | 228 kts | 298° |
| 2026-05-04 21:54 | 66.56180 | 26.19676 | 6459 ft | 232 kts | 326° |
| 2026-05-04 21:54 | 66.57680 | 26.18283 | 6459 ft | 233 kts | 355° |
| 2026-05-04 21:54 | 66.59268 | 26.18795 | 6460 ft | 231 kts | 24° |
| 2026-05-04 21:55 | 66.60726 | 26.20515 | 6460 ft | 232 kts | 28° |
| 2026-05-04 21:55 | 66.62162 | 26.22351 | 6463 ft | 232 kts | 29° |
| 2026-05-04 21:55 | 66.63596 | 26.24213 | 6464 ft | 232 kts | 29° |
| 2026-05-04 21:55 | 66.65029 | 26.26070 | 6494 ft | 232 kts | 28° |
| 2026-05-04 21:56 | 66.66364 | 26.28278 | 6490 ft | 229 kts | 49° |
| 2026-05-04 21:56 | 66.66871 | 26.30039 | 6490 ft | 226 kts | 66° |
| 2026-05-04 21:56 | 66.67138 | 26.31864 | 6491 ft | 224 kts | 81° |
| 2026-05-04 21:56 | 66.67122 | 26.35746 | 6282 ft | 224 kts | 110° |
| 2026-05-04 21:57 | 66.66373 | 26.39024 | 6077 ft | 213 kts | 137° |
| 2026-05-04 21:57 | 66.65153 | 26.40989 | 5810 ft | 208 kts | 163° |
| 2026-05-04 21:57 | 66.63743 | 26.41356 | 5491 ft | 209 kts | 188° |
| 2026-05-04 21:57 | 66.62366 | 26.40158 | 5164 ft | 211 kts | 204° |
| 2026-05-04 21:58 | 66.61157 | 26.38057 | 4847 ft | 214 kts | 227° |
| 2026-05-04 21:58 | 66.60444 | 26.34782 | 4548 ft | 216 kts | 255° |
| 2026-05-04 21:58 | 66.60425 | 26.30972 | 4365 ft | 219 kts | 283° |
| 2026-05-04 21:58 | 66.61106 | 26.27615 | 4183 ft | 221 kts | 312° |
| 2026-05-04 21:59 | 66.62363 | 26.25467 | 3995 ft | 220 kts | 342° |
| 2026-05-04 21:59 | 66.63866 | 26.24772 | 3777 ft | 221 kts | 351° |
| 2026-05-04 21:59 | 66.65233 | 26.23112 | 3620 ft | 221 kts | 321° |
| 2026-05-04 21:59 | 66.66377 | 26.20529 | 3462 ft | 220 kts | 316° |
| 2026-05-04 22:00 | 66.67460 | 26.17808 | 3299 ft | 220 kts | 310° |
| 2026-05-04 22:00 | 66.68076 | 26.14371 | 3139 ft | 217 kts | 274° |
| 2026-05-04 22:00 | 66.67930 | 26.10625 | 2982 ft | 215 kts | 256° |
| 2026-05-04 22:00 | 66.67586 | 26.06964 | 2845 ft | 214 kts | 253° |
| 2026-05-04 22:01 | 66.66974 | 26.03597 | 2716 ft | 209 kts | 231° |
| 2026-05-04 22:01 | 66.65945 | 26.01201 | 2647 ft | 196 kts | 214° |
| 2026-05-04 22:01 | 66.64894 | 25.99178 | 2510 ft | 186 kts | 215° |
| 2026-05-04 22:01 | 66.63879 | 25.97219 | 2244 ft | 179 kts | 215° |
| 2026-05-04 22:02 | 66.62925 | 25.95381 | 2025 ft | 166 kts | 215° |
| 2026-05-04 22:02 | 66.62064 | 25.93724 | 1804 ft | 147 kts | 214° |
| 2026-05-04 22:02 | 66.61285 | 25.92228 | 1605 ft | 137 kts | 214° |
| 2026-05-04 22:02 | 66.60537 | 25.90796 | 1417 ft | 134 kts | 214° |
| 2026-05-04 22:03 | 66.59795 | 25.89375 | 1223 ft | 134 kts | 214° |
| 2026-05-04 22:03 | 66.59057 | 25.87962 | 1030 ft | 133 kts | 216° |
| 2026-05-04 22:03 | 66.58323 | 25.86559 | 832 ft | 132 kts | 217° |
| 2026-05-04 22:03 | 66.57596 | 25.85173 | 654 ft | 131 kts | 218° |
| 2026-05-04 22:04 | 66.56924 | 25.83882 | 622 ft | 106 kts | 217° |
| 2026-05-04 22:04 | 66.56462 | 25.83004 | 631 ft | 61 kts | 217° |
| 2026-05-04 22:04 | 66.56240 | 25.82580 | 628 ft | 27 kts | 217° |
| 2026-05-04 22:04 | 66.56139 | 25.82388 | 624 ft | 13 kts | 217° |
| 2026-05-04 22:05 | 66.56068 | 25.82258 | 621 ft | 10 kts | 210° |
| 2026-05-04 22:05 | 66.56019 | 25.82271 | 629 ft | 5 kts | 144° |
| 2026-05-04 22:05 | 66.55989 | 25.82365 | 624 ft | 7 kts | 126° |
| 2026-05-04 22:05 | 66.55968 | 25.82437 | 621 ft | 5 kts | 126° |
| 2026-05-04 22:06 | 66.55952 | 25.82495 | 623 ft | 3 kts | 122° |
| 2026-05-04 22:06 | 66.55948 | 25.82541 | 625 ft | 2 kts | 93° |
| 2026-05-04 22:06 | 66.55950 | 25.82575 | 623 ft | 2 kts | 81° |
| 2026-05-04 22:06 | 66.55950 | 25.82607 | 627 ft | 2 kts | 101° |
| 2026-05-04 22:07 | 66.55942 | 25.82632 | 629 ft | 2 kts | 132° |
| 2026-05-04 22:07 | 66.55929 | 25.82652 | 625 ft | 3 kts | 152° |
| 2026-05-04 22:07 | 66.55906 | 25.82679 | 626 ft | 4 kts | 155° |
| 2026-05-04 22:07 | 66.55879 | 25.82709 | 626 ft | 4 kts | 155° |
| 2026-05-04 22:08 | 66.55862 | 25.82728 | 625 ft | 1 kts | 156° |
| 2026-05-04 22:08 | 66.55862 | 25.82729 | 626 ft | 0 kts | 156° |
| 2026-05-04 22:19 | 66.55861 | 25.82729 | 628 ft | 0 kts | 156° |